Time;durP1;ratioP1;P1;durP2;ratioP2;P2;SDS_P1;SDS_P2;PMS_P1;PMS_P2;Temp;Humidity;BMP_temperature;BMP_pressure;BME280_temperature;BME280_humidity;BME280_pressure;Samples;Min_cycle;Max_cycle;Signal;HPM_P1;HPM_P2
2022/04/28 04:22:36;;;;;;;17.35;11.05;;;;;;;6.95;95.89;101211.47;5109100;27;20634;-74
2022/04/28 04:25:03;;;;;;;16.33;11.35;;;;;;;6.92;96.41;101209.09;5108066;28;20032;-74
2022/04/28 04:27:30;;;;;;;16.25;11.20;;;;;;;6.86;96.91;101205.13;5107924;28;20134;-75
2022/04/28 04:32:59;;;;;;;16.08;10.52;;;;;;;6.89;96.41;101214.63;5107761;28;20488;-75
2022/04/28 04:35:28;;;;;;;17.35;11.82;;;;;;;6.90;95.99;101216.31;5107771;28;20146;-74
2022/04/28 04:37:54;;;;;;;14.50;10.23;;;;;;;6.87;96.94;101219.22;5091074;28;20040;-75
2022/04/28 04:40:23;;;;;;;16.92;11.05;;;;;;;6.84;97.10;101219.44;5107686;28;20042;-74
2022/04/28 04:42:49;;;;;;;13.82;9.80;;;;;;;6.92;95.71;101225.00;5107458;28;20040;-75
2022/04/28 04:45:14;;;;;;;16.55;10.60;;;;;;;6.90;96.31;101232.19;5107469;28;20553;-75
2022/04/28 04:48:00;;;;;;;14.07;9.55;;;;;;;6.90;96.32;101234.84;5101484;28;20051;-75
2022/04/28 04:50:43;;;;;;;16.08;10.43;;;;;;;6.93;95.81;101238.09;5107577;28;20054;-75
2022/04/28 04:53:29;;;;;;;18.02;10.98;;;;;;;6.90;96.46;101243.63;5108079;28;20036;-75
2022/04/28 04:55:54;;;;;;;15.00;11.00;;;;;;;6.92;96.05;101240.88;5107429;28;20094;-75
2022/04/28 04:58:20;;;;;;;16.20;10.35;;;;;;;6.98;95.87;101250.97;5073729;28;20384;-75
2022/04/28 05:00:46;;;;;;;15.05;11.00;;;;;;;6.99;95.81;101255.31;5107548;28;20089;-74
2022/04/28 05:03:23;;;;;;;16.08;10.93;;;;;;;7.00;96.27;101254.34;5108568;28;20166;-75
2022/04/28 05:06:01;;;;;;;15.60;10.68;;;;;;;7.05;95.68;101260.09;5108656;28;20121;-74
2022/04/28 05:08:32;;;;;;;12.77;9.88;;;;;;;7.08;95.26;101260.69;5107444;28;20031;-75
2022/04/28 05:11:00;;;;;;;18.05;10.07;;;;;;;7.05;96.45;101263.59;5107316;28;20035;-75
2022/04/28 05:13:26;;;;;;;15.23;9.98;;;;;;;7.12;95.77;101266.56;5106952;28;20032;-73
2022/04/28 05:15:54;;;;;;;14.55;10.02;;;;;;;7.21;95.59;101272.91;5108381;28;20051;-74
2022/04/28 05:18:37;;;;;;;15.13;9.68;;;;;;;7.27;95.30;101273.25;5107137;28;20043;-74
2022/04/28 05:21:20;;;;;;;14.15;10.23;;;;;;;7.27;95.64;101270.59;5108075;28;20063;-74
2022/04/28 05:24:09;;;;;;;15.57;10.30;;;;;;;7.40;95.08;101278.38;5108078;28;20062;-75
2022/04/28 05:27:00;;;;;;;13.98;9.50;;;;;;;7.48;94.80;101283.03;5106067;28;20075;-75
2022/04/28 05:29:26;;;;;;;14.57;10.70;;;;;;;7.49;94.45;101285.56;5108367;28;20125;-74
2022/04/28 05:32:06;;;;;;;12.80;10.10;;;;;;;7.58;94.30;101287.44;5103416;28;20032;-74
2022/04/28 05:34:49;;;;;;;14.73;10.05;;;;;;;7.65;93.84;101287.78;5093249;28;20125;-75
2022/04/28 05:37:17;;;;;;;14.32;9.95;;;;;;;7.75;93.19;101287.81;5093289;28;20451;-74
2022/04/28 05:39:45;;;;;;;14.95;9.60;;;;;;;7.78;93.09;101288.44;5093121;28;20036;-74
2022/04/28 05:42:11;;;;;;;14.68;9.82;;;;;;;7.87;93.01;101287.63;5092624;28;20073;-75
2022/04/28 05:47:22;;;;;;;15.00;9.63;;;;;;;8.07;92.14;101293.06;5094263;28;20051;-76
2022/04/28 05:49:48;;;;;;;11.75;9.32;;;;;;;8.18;91.61;101295.63;5093163;28;20114;-75
2022/04/28 05:52:14;;;;;;;14.05;9.98;;;;;;;8.27;90.93;101296.63;5075702;28;20165;-74
2022/04/28 05:54:40;;;;;;;11.75;9.40;;;;;;;8.26;89.89;101293.16;5093095;28;20135;-74
2022/04/28 05:57:06;;;;;;;15.32;10.85;;;;;;;8.34;90.49;101295.97;5092735;28;20028;-75
2022/04/28 05:59:32;;;;;;;12.40;9.50;;;;;;;8.41;90.09;101310.44;5092766;28;20047;-74
2022/04/28 06:02:16;;;;;;;13.35;10.23;;;;;;;8.52;88.61;101298.88;5093703;28;20078;-74
2022/04/28 06:04:42;;;;;;;12.82;10.02;;;;;;;8.61;89.07;101305.22;5092711;28;20570;-74
2022/04/28 06:07:10;;;;;;;13.73;9.77;;;;;;;8.77;88.68;101312.66;5075865;28;20028;-74
2022/04/28 06:09:39;;;;;;;12.90;9.35;;;;;;;8.87;88.15;101317.03;5092635;28;20092;-74
2022/04/28 06:12:07;;;;;;;14.57;9.98;;;;;;;9.13;87.30;101324.50;5092242;28;20028;-75
2022/04/28 06:14:56;;;;;;;13.02;9.52;;;;;;;9.60;84.67;101322.84;5092665;28;20076;-73
2022/04/28 06:17:31;;;;;;;12.23;9.15;;;;;;;9.65;84.68;101325.06;5092504;28;20423;-73
2022/04/28 06:19:57;;;;;;;14.75;9.30;;;;;;;9.65;84.15;101322.38;5092650;28;20040;-73
2022/04/28 06:22:55;;;;;;;12.38;9.32;;;;;;;9.65;84.35;101325.91;5092061;28;20067;-73
2022/04/28 06:25:23;;;;;;;13.57;9.35;;;;;;;9.67;84.00;101326.59;5092345;28;20112;-73
2022/04/28 06:27:50;;;;;;;12.82;9.27;;;;;;;9.79;83.82;101317.50;5075981;28;20131;-72
2022/04/28 06:30:17;;;;;;;13.75;9.13;;;;;;;9.79;83.82;101317.50;5092290;28;20050;-73
2022/04/28 06:32:44;;;;;;;14.32;9.05;;;;;;;9.86;84.83;101325.75;5091901;28;20047;-70
2022/04/28 06:35:36;;;;;;;12.63;9.30;;;;;;;9.84;83.49;101325.03;5084775;28;20040;-70
2022/04/28 06:38:02;;;;;;;11.57;9.10;;;;;;;9.89;83.30;101324.63;5092161;28;20142;-72
2022/04/28 06:40:29;;;;;;;13.27;9.23;;;;;;;9.94;83.16;101320.53;5092001;28;20039;-72
2022/04/28 06:42:55;;;;;;;14.77;9.00;;;;;;;10.09;83.07;101328.06;5091877;28;20051;-72
2022/04/28 06:45:24;;;;;;;12.80;8.88;;;;;;;10.17;82.68;101323.72;5091092;28;20408;-71
2022/04/28 06:48:08;;;;;;;12.68;9.15;;;;;;;10.22;81.93;101318.78;5093413;28;20066;-72
2022/04/28 06:50:40;;;;;;;10.90;8.52;;;;;;;10.38;80.88;101326.22;5093211;28;20043;-72
2022/04/28 06:53:20;;;;;;;12.73;8.68;;;;;;;10.53;81.37;101322.06;5092855;28;20432;-72
2022/04/28 06:55:50;;;;;;;14.13;10.00;;;;;;;10.63;80.97;101313.19;5075401;28;20032;-72
2022/04/28 06:58:16;;;;;;;11.45;8.82;;;;;;;10.73;79.78;101322.00;5092007;28;20028;-72
2022/04/28 07:00:43;;;;;;;13.23;8.55;;;;;;;10.80;79.18;101326.56;5075019;28;20131;-72
2022/04/28 07:03:10;;;;;;;11.43;8.45;;;;;;;10.84;78.29;101329.78;5074601;28;20036;-72
2022/04/28 07:05:38;;;;;;;14.18;8.32;;;;;;;10.92;77.47;101327.22;5091670;28;20646;-73
2022/04/28 07:08:06;;;;;;;12.38;9.15;;;;;;;10.98;77.49;101331.13;5091649;28;20036;-72
2022/04/28 07:10:37;;;;;;;11.18;8.55;;;;;;;11.09;76.98;101328.25;5091426;28;20059;-73
2022/04/28 07:13:03;;;;;;;11.32;7.93;;;;;;;11.11;77.01;101334.25;5091124;28;20040;-73
2022/04/28 07:15:51;;;;;;;10.27;8.15;;;;;;;11.11;76.18;101327.09;5072415;28;20047;-73
2022/04/28 07:18:35;;;;;;;11.30;8.25;;;;;;;11.25;76.51;101333.72;5091894;28;20042;-72
2022/04/28 07:21:03;;;;;;;11.93;7.88;;;;;;;11.43;76.26;101332.91;5092490;28;20044;-73
2022/04/28 07:23:29;;;;;;;8.93;7.45;;;;;;;11.53;75.19;101334.50;5090980;28;20488;-73
2022/04/28 07:25:55;;;;;;;10.27;7.90;;;;;;;11.64;74.23;101339.59;5091221;28;20036;-73
2022/04/28 07:28:21;;;;;;;11.02;7.70;;;;;;;11.72;73.33;101343.34;5092505;28;20494;-73
2022/04/28 07:31:04;;;;;;;9.55;7.38;;;;;;;11.85;72.99;101343.81;5092512;28;20035;-73
2022/04/28 07:33:49;;;;;;;9.10;7.50;;;;;;;11.99;73.00;101351.25;5092214;28;20055;-73
2022/04/28 07:36:33;;;;;;;9.20;6.95;;;;;;;12.13;72.83;101348.03;5092426;28;20051;-73
2022/04/28 07:39:33;;;;;;;12.02;8.13;;;;;;;12.26;71.13;101349.44;5069555;28;20045;-73
2022/04/28 07:42:20;;;;;;;9.63;6.63;;;;;;;12.43;71.86;101345.88;5090614;28;20455;-72
2022/04/28 07:44:47;;;;;;;11.20;6.53;;;;;;;12.58;70.71;101351.44;5091005;28;20040;-73
2022/04/28 07:47:13;;;;;;;9.90;7.15;;;;;;;12.69;70.51;101356.53;5090779;28;20047;-73
2022/04/28 07:49:51;;;;;;;9.38;6.70;;;;;;;12.86;70.79;101352.94;5090787;28;20548;-73
2022/04/28 07:52:16;;;;;;;10.40;6.97;;;;;;;13.00;69.02;101354.16;5091859;28;20089;-73
2022/04/28 07:54:42;;;;;;;8.82;6.90;;;;;;;13.09;67.85;101361.19;5090791;28;20405;-73
2022/04/28 07:57:08;;;;;;;9.10;6.80;;;;;;;13.16;67.43;101359.53;5090444;28;20036;-73
2022/04/28 07:59:35;;;;;;;8.93;6.28;;;;;;;13.33;67.11;101355.09;5090838;28;20040;-71
2022/04/28 08:02:14;;;;;;;7.30;6.15;;;;;;;13.45;66.63;101356.47;5090497;28;20113;-73
2022/04/28 08:04:43;;;;;;;8.45;6.47;;;;;;;13.62;65.04;101351.94;5090676;28;20035;-71
2022/04/28 08:07:09;;;;;;;8.07;5.88;;;;;;;13.76;65.09;101361.19;5090588;28;20051;-70
2022/04/28 08:09:38;;;;;;;8.52;5.60;;;;;;;13.94;64.23;101355.63;5090697;28;20047;-71
2022/04/28 08:12:05;;;;;;;8.77;5.82;;;;;;;14.11;64.17;101349.28;5073575;28;20418;-71
2022/04/28 08:14:32;;;;;;;6.95;5.03;;;;;;;14.33;59.56;101350.41;5090600;28;20066;-70
2022/04/28 08:16:59;;;;;;;6.88;5.10;;;;;;;14.54;60.01;101339.13;5090502;28;20044;-72
2022/04/28 08:19:25;;;;;;;7.35;5.30;;;;;;;14.69;56.91;101345.47;5090528;28;20437;-72
2022/04/28 08:22:01;;;;;;;8.13;4.70;;;;;;;14.79;54.79;101345.25;5074892;28;20043;-72
2022/04/28 08:24:28;;;;;;;9.27;4.68;;;;;;;15.00;54.42;101345.50;5090440;28;20071;-73
2022/04/28 08:26:54;;;;;;;7.28;4.95;;;;;;;14.94;54.00;101340.84;5073578;28;20040;-72
2022/04/28 08:29:24;;;;;;;7.82;4.90;;;;;;;15.24;53.02;101352.56;5090349;28;20040;-72
2022/04/28 08:31:55;;;;;;;5.47;4.32;;;;;;;15.39;51.38;101349.97;5090079;28;20056;-73
2022/04/28 08:34:22;;;;;;;6.45;3.80;;;;;;;15.33;51.86;101348.00;5090352;28;20075;-72
2022/04/28 08:36:50;;;;;;;5.88;4.47;;;;;;;15.61;50.16;101349.13;5090292;28;20043;-73
2022/04/28 08:39:17;;;;;;;6.10;4.72;;;;;;;15.64;49.69;101350.66;5090187;28;20429;-71
2022/04/28 08:41:47;;;;;;;6.25;3.65;;;;;;;15.89;49.16;101356.66;5089866;28;20032;-72
2022/04/28 08:44:26;;;;;;;8.65;4.55;;;;;;;16.14;48.28;101362.66;5091856;28;20496;-72
2022/04/28 08:47:27;;;;;;;6.45;4.30;;;;;;;16.21;47.75;101360.91;5048836;28;20375;-71
2022/04/28 08:50:11;;;;;;;5.93;4.10;;;;;;;16.44;46.62;101356.31;5087811;28;20134;-72
2022/04/28 08:52:55;;;;;;;5.82;3.97;;;;;;;16.60;43.75;101360.66;5091302;28;20097;-72
2022/04/28 08:55:29;;;;;;;;;;;;;;;16.75;43.17;101356.13;5090631;28;20522;-72
2022/04/28 08:57:55;;;;;;;6.00;3.85;;;;;;;16.95;44.25;101359.09;5090151;28;19916;-72
2022/04/28 09:00:21;;;;;;;6.20;3.83;;;;;;;16.93;43.71;101360.28;5090049;28;20497;-72
2022/04/28 09:03:15;;;;;;;6.63;3.85;;;;;;;17.17;41.22;101361.84;5090831;28;20493;-73
2022/04/28 09:06:19;;;;;;;6.50;4.28;;;;;;;17.40;41.35;101361.66;5091274;28;20091;-72
2022/04/28 09:09:06;;;;;;;4.20;3.70;;;;;;;17.48;39.71;101367.78;5094641;28;20528;-72
2022/04/28 09:11:53;;;;;;;4.60;3.10;;;;;;;17.56;38.63;101358.72;5093800;28;20047;-72
2022/04/28 09:14:42;;;;;;;6.25;3.45;;;;;;;17.69;38.52;101361.53;5095147;28;20047;-72
2022/04/28 09:17:09;;;;;;;4.47;3.40;;;;;;;17.82;38.29;101361.69;5093758;28;20066;-72
2022/04/28 09:19:38;;;;;;;5.90;3.60;;;;;;;18.09;37.07;101353.84;5093576;28;20101;-73
2022/04/28 09:22:13;;;;;;;4.63;3.20;;;;;;;18.12;37.86;101361.50;5093233;28;20167;-72
2022/04/28 09:24:44;;;;;;;7.57;3.85;;;;;;;18.28;36.94;101353.16;5093521;28;20043;-71
2022/04/28 09:27:12;;;;;;;5.70;3.58;;;;;;;18.68;38.00;101351.53;5093366;28;20417;-70
2022/04/28 09:29:41;;;;;;;5.10;3.42;;;;;;;18.96;36.84;101356.03;5093421;28;20032;-72
2022/04/28 09:32:12;;;;;;;6.43;3.45;;;;;;;18.80;35.64;101354.50;5092889;28;20024;-71
2022/04/28 09:35:11;;;;;;;5.97;3.30;;;;;;;19.30;35.05;101354.25;5093469;28;20058;-72
2022/04/28 09:37:40;;;;;;;5.20;3.37;;;;;;;19.37;32.70;101357.84;5095009;28;20519;-72
2022/04/28 09:42:53;;;;;;;6.32;3.65;;;;;;;19.70;31.95;101345.25;5093004;28;20190;-70
2022/04/28 09:45:28;;;;;;;4.57;3.45;;;;;;;19.92;33.68;101353.16;5093059;28;20374;-70
2022/04/28 09:48:03;;;;;;;5.70;3.67;;;;;;;19.82;31.38;101350.84;5076110;28;20043;-70
2022/04/28 09:50:38;;;;;;;5.53;3.95;;;;;;;20.00;32.01;101345.66;5092986;28;20040;-69
2022/04/28 09:53:22;;;;;;;4.18;3.30;;;;;;;20.38;30.28;101344.16;5094263;28;20461;-70
2022/04/28 09:56:05;;;;;;;5.13;3.50;;;;;;;20.64;30.67;101333.28;5094496;28;20491;-70
2022/04/28 09:58:45;;;;;;;5.22;3.55;;;;;;;20.93;28.55;101340.06;5094379;28;20094;-71
2022/04/28 10:01:11;;;;;;;5.70;3.70;;;;;;;21.11;29.86;101340.16;5094025;28;20032;-70
2022/04/28 10:03:40;;;;;;;5.53;3.65;;;;;;;21.06;28.90;101341.84;5092852;28;20075;-70
2022/04/28 10:06:10;;;;;;;4.50;3.17;;;;;;;21.46;31.01;101338.97;5092665;28;20122;-70
2022/04/28 10:08:56;;;;;;;5.50;3.58;;;;;;;22.20;28.34;101335.47;5092998;28;20086;-70
2022/04/28 10:11:24;;;;;;;4.07;3.33;;;;;;;22.44;27.68;101333.75;5092531;28;20553;-70
2022/04/28 10:13:51;;;;;;;4.03;3.13;;;;;;;22.45;27.36;101330.81;5092556;28;20032;-70
2022/04/28 10:16:21;;;;;;;5.35;3.50;;;;;;;22.95;27.80;101330.69;5075815;28;20050;-70
2022/04/28 10:18:53;;;;;;;5.50;3.42;;;;;;;22.47;27.52;101327.88;5092281;28;20083;-70
2022/04/28 10:21:31;;;;;;;4.50;3.30;;;;;;;22.57;28.41;101330.06;5092284;28;20036;-70
2022/04/28 10:33:01;;;;;;;4.25;3.30;;;;;;;22.88;25.79;101320.94;5099278;22;20045;-70
2022/04/28 10:35:38;;;;;;;4.35;3.15;;;;;;;23.32;25.59;101316.16;5055387;28;20044;-71
2022/04/28 10:38:19;;;;;;;5.18;3.67;;;;;;;23.35;25.62;101316.53;5073480;28;20157;-71
2022/04/28 10:40:56;;;;;;;6.47;3.05;;;;;;;23.81;25.26;101331.31;5074322;28;20078;-71
2022/04/28 10:43:23;;;;;;;;;;;;;;;24.06;22.52;101323.78;5093643;28;20064;-70
2022/04/28 10:45:49;;;;;;;;;;;;;;;24.44;22.05;101333.34;5093514;28;19915;-71
2022/04/28 10:48:30;;;;;;;6.90;3.95;;;;;;;24.23;22.37;101320.31;5093846;28;20006;-72
2022/04/28 10:51:17;;;;;;;6.68;3.33;;;;;;;24.58;23.42;101323.00;5059695;28;20036;-71
2022/04/28 10:53:55;;;;;;;4.43;3.10;;;;;;;24.76;24.16;101314.69;5093418;28;20555;-71
2022/04/28 10:56:21;;;;;;;4.53;3.15;;;;;;;24.89;21.83;101319.84;5093682;28;20032;-70
2022/04/28 10:58:47;;;;;;;6.05;3.63;;;;;;;24.82;21.81;101316.44;5094138;28;20034;-70
2022/04/28 11:01:27;;;;;;;4.15;3.40;;;;;;;25.10;22.04;101314.81;5093305;28;20040;-71
2022/04/28 11:03:56;;;;;;;5.40;3.90;;;;;;;24.85;22.36;101326.06;5060736;28;20195;-71
2022/04/28 11:06:37;;;;;;;5.00;3.70;;;;;;;24.94;22.81;101324.59;5095536;28;20107;-71
2022/04/28 11:09:06;;;;;;;8.15;3.83;;;;;;;24.79;22.48;101319.66;5076882;28;20469;-72
2022/04/28 11:11:46;;;;;;;4.80;3.30;;;;;;;24.88;22.29;101323.66;5094090;28;20028;-72
2022/04/28 11:14:13;;;;;;;4.97;4.13;;;;;;;24.08;23.33;101327.06;5093636;28;20511;-71
2022/04/28 11:16:43;;;;;;;4.90;3.30;;;;;;;24.28;25.15;101332.16;5093222;28;20120;-71
2022/04/28 11:19:09;;;;;;;4.97;3.25;;;;;;;24.90;24.02;101324.22;5075456;28;20140;-71
2022/04/28 11:21:38;;;;;;;7.50;4.00;;;;;;;25.35;23.43;101319.91;5093151;28;20027;-71
2022/04/28 11:24:07;;;;;;;6.07;4.10;;;;;;;25.39;23.29;101321.91;5075000;28;20097;-70
2022/04/28 11:26:49;;;;;;;5.93;3.90;;;;;;;25.36;23.25;101322.41;5074911;28;20042;-70
2022/04/28 11:29:32;;;;;;;7.72;4.43;;;;;;;25.25;24.05;101331.47;5074892;28;20047;-71
2022/04/28 11:32:00;;;;;;;5.95;4.00;;;;;;;24.85;24.53;101331.50;5092315;28;20040;-71
2022/04/28 11:34:29;;;;;;;9.88;5.15;;;;;;;25.44;23.74;101321.19;5092770;28;20024;-71
2022/04/28 11:36:54;;;;;;;8.48;5.18;;;;;;;25.89;23.82;101317.59;5058445;28;20039;-70
2022/04/28 11:39:23;;;;;;;4.85;3.85;;;;;;;25.67;24.54;101312.84;5074533;28;20040;-69
2022/04/28 11:41:52;;;;;;;7.75;4.90;;;;;;;26.15;23.45;101310.63;5091619;28;20032;-71
2022/04/28 11:44:19;;;;;;;5.10;4.05;;;;;;;26.15;23.94;101306.00;5074334;28;20449;-70
2022/04/28 11:46:44;;;;;;;6.70;4.57;;;;;;;26.21;24.33;101307.72;5092532;28;20040;-69
2022/04/28 11:49:10;;;;;;;8.50;4.38;;;;;;;25.77;25.17;101316.88;5075224;28;20036;-71
2022/04/28 11:51:36;;;;;;;6.72;4.60;;;;;;;26.58;22.92;101292.63;5091859;28;20066;-70
2022/04/28 11:54:19;;;;;;;7.10;4.80;;;;;;;26.40;23.37;101310.97;5092031;28;20036;-70
2022/04/28 11:56:45;;;;;;;5.80;4.13;;;;;;;26.56;23.20;101301.09;5091850;28;20059;-71
2022/04/28 11:59:11;;;;;;;7.30;4.30;;;;;;;25.21;23.78;101299.50;5091692;28;20099;-71
2022/04/28 12:01:36;;;;;;;8.07;4.25;;;;;;;26.32;23.58;101295.00;5091445;28;20133;-70
2022/04/28 12:04:02;;;;;;;5.75;4.53;;;;;;;26.66;23.18;101281.25;5091540;28;20089;-71
2022/04/28 12:06:28;;;;;;;7.80;5.07;;;;;;;25.90;24.48;101298.25;5092295;28;20097;-71
2022/04/28 12:08:56;;;;;;;8.48;5.15;;;;;;;26.36;23.59;101303.53;5092266;28;20472;-70
2022/04/28 12:14:27;;;;;;;6.22;4.38;;;;;;;26.64;24.50;101294.34;5076454;28;20510;-70
2022/04/28 12:19:51;;;;;;;6.72;5.03;;;;;;;25.79;24.38;101290.16;5091887;28;20040;-72
2022/04/28 12:22:27;;;;;;;7.40;4.60;;;;;;;26.31;24.53;101293.38;5091539;28;20028;-70
2022/04/28 12:24:53;;;;;;;6.88;4.53;;;;;;;27.15;22.80;101284.03;5091736;28;20035;-70
2022/04/28 12:27:20;;;;;;;5.28;4.30;;;;;;;27.54;21.73;101280.00;5091486;28;20040;-71
2022/04/28 12:29:53;;;;;;;10.60;5.20;;;;;;;26.87;23.43;101277.69;5092141;28;20411;-71
2022/04/28 12:32:22;;;;;;;6.07;4.03;;;;;;;27.02;24.23;101283.31;5090969;28;20039;-71
2022/04/28 12:35:03;;;;;;;8.68;4.95;;;;;;;26.70;23.30;101285.16;5091654;28;20503;-72
2022/04/28 12:37:29;;;;;;;9.75;5.47;;;;;;;26.50;23.50;101278.34;5091925;28;20574;-71
2022/04/28 12:40:02;;;;;;;6.05;4.78;;;;;;;27.46;23.93;101276.94;5091636;28;20032;-71
2022/04/28 12:42:44;;;;;;;6.70;5.00;;;;;;;26.81;24.10;101269.69;5092128;28;20043;-71
2022/04/28 12:45:11;;;;;;;6.65;4.60;;;;;;;26.97;24.08;101269.59;5077210;28;20138;-72
2022/04/28 12:47:38;;;;;;;8.77;5.18;;;;;;;26.94;22.81;101263.81;5095410;28;20043;-72
2022/04/28 12:50:21;;;;;;;6.85;4.75;;;;;;;27.04;23.37;101262.00;5095379;28;20071;-71
2022/04/28 12:52:48;;;;;;;5.35;4.63;;;;;;;27.51;22.42;101263.25;5095246;28;20037;-71
2022/04/28 12:55:15;;;;;;;4.93;4.40;;;;;;;27.64;22.67;101256.53;5097027;28;20023;-71
2022/04/28 12:57:42;;;;;;;5.90;4.28;;;;;;;27.74;22.70;101260.19;5097245;28;20623;-71
2022/04/28 13:00:09;;;;;;;8.55;5.13;;;;;;;25.72;24.04;101268.47;5078537;28;20089;-72
2022/04/28 13:02:44;;;;;;;12.05;4.70;;;;;;;27.27;22.78;101260.91;5096965;28;20497;-72
2022/04/28 13:05:15;;;;;;;6.93;4.72;;;;;;;27.43;23.17;101253.63;5096449;28;20040;-72
2022/04/28 13:07:44;;;;;;;5.82;4.47;;;;;;;27.61;21.96;101246.13;5077043;28;20032;-71
2022/04/28 13:10:13;;;;;;;6.28;4.70;;;;;;;27.47;23.60;101252.03;5094940;28;20028;-71
2022/04/28 13:12:39;;;;;;;5.28;4.47;;;;;;;27.38;21.63;101239.91;5094543;28;20442;-72
2022/04/28 13:15:05;;;;;;;5.32;3.80;;;;;;;28.25;20.91;101235.84;5094698;28;20043;-72
2022/04/28 13:17:32;;;;;;;5.82;3.72;;;;;;;28.41;20.28;101230.47;5094600;28;20055;-70
2022/04/28 13:19:57;;;;;;;5.32;3.83;;;;;;;27.66;23.01;101230.56;5076816;28;20028;-72
2022/04/28 13:22:23;;;;;;;7.25;4.03;;;;;;;28.21;21.28;101226.50;5094101;28;20382;-71
2022/04/28 13:24:49;;;;;;;5.55;3.75;;;;;;;28.43;21.08;101222.78;5094689;28;20071;-75
2022/04/28 13:27:15;;;;;;;11.02;4.28;;;;;;;28.30;20.95;101219.44;5095318;28;20223;-75
2022/04/28 13:29:41;;;;;;;8.25;3.90;;;;;;;28.33;20.68;101224.41;5095355;28;20572;-76
2022/04/28 13:32:08;;;;;;;6.70;4.55;;;;;;;28.30;20.55;101224.94;5094396;28;20103;-77
2022/04/28 13:34:35;;;;;;;6.15;4.22;;;;;;;27.70;20.92;101228.97;5095569;28;20397;-76
2022/04/28 13:37:02;;;;;;;4.32;3.92;;;;;;;25.54;23.04;101219.59;5079419;28;20040;-78
2022/04/28 13:39:28;;;;;;;5.25;3.95;;;;;;;25.33;24.49;101218.47;5101238;28;20131;-77
2022/04/28 13:41:54;;;;;;;5.63;4.30;;;;;;;24.95;24.24;101219.97;5068202;28;20036;-77
2022/04/28 13:44:19;;;;;;;7.32;4.07;;;;;;;24.68;25.55;101203.38;5080917;28;20046;-79
2022/04/28 13:46:46;;;;;;;7.90;4.20;;;;;;;24.64;24.50;101205.75;5098172;28;20411;-78
2022/04/28 13:49:12;;;;;;;5.10;3.83;;;;;;;24.46;25.97;101205.16;5098073;28;20040;-78
2022/04/28 13:51:38;;;;;;;5.07;4.00;;;;;;;24.19;25.35;101194.78;5096287;28;20032;-77
2022/04/28 13:54:03;;;;;;;7.10;4.00;;;;;;;23.62;26.44;101207.38;5076452;28;20036;-77
2022/04/28 13:56:29;;;;;;;7.05;3.78;;;;;;;23.45;27.81;101209.94;5094597;28;20040;-77
2022/04/28 13:58:54;;;;;;;9.55;4.80;;;;;;;22.30;27.75;101205.53;5095096;28;20032;-78
2022/04/28 14:01:20;;;;;;;7.32;4.70;;;;;;;22.65;27.37;101204.84;5077537;28;20043;-78
2022/04/28 14:03:46;;;;;;;5.43;4.18;;;;;;;22.42;27.77;101203.69;5094441;28;20056;-77
2022/04/28 14:06:11;;;;;;;6.97;4.30;;;;;;;22.73;27.54;101204.53;5096537;28;20069;-79
2022/04/28 14:08:37;;;;;;;6.07;4.40;;;;;;;21.80;28.99;101194.78;5097088;28;20202;-78
2022/04/28 14:11:07;;;;;;;14.88;5.13;;;;;;;21.80;28.91;101199.38;5076975;28;20540;-78
2022/04/28 14:13:34;;;;;;;7.22;4.45;;;;;;;22.13;28.83;101197.16;5095309;28;20035;-79
2022/04/28 14:16:01;;;;;;;8.70;4.43;;;;;;;22.16;28.18;101185.00;5081678;28;20555;-81
2022/04/28 14:18:28;;;;;;;6.05;4.60;;;;;;;22.23;28.74;101193.06;5097607;28;20040;-78
2022/04/28 14:20:54;;;;;;;6.85;4.53;;;;;;;21.80;28.79;101192.06;5098881;28;20032;-71
2022/04/28 14:23:24;;;;;;;9.77;4.87;;;;;;;21.59;28.90;101193.31;5075347;28;20083;-70
2022/04/28 14:25:50;;;;;;;7.22;5.18;;;;;;;21.77;28.24;101195.22;5093530;28;20055;-71
2022/04/28 14:28:16;;;;;;;5.13;4.53;;;;;;;21.39;29.39;101190.78;5093323;28;20119;-71
2022/04/28 14:30:42;;;;;;;9.68;5.15;;;;;;;21.68;29.16;101180.31;5093142;28;20450;-71
2022/04/28 14:33:09;;;;;;;6.87;4.87;;;;;;;21.59;29.79;101173.53;5093147;28;20063;-71
2022/04/28 14:35:35;;;;;;;7.53;4.40;;;;;;;21.31;30.27;101190.22;5093249;28;20047;-71
2022/04/28 14:38:01;;;;;;;7.70;4.82;;;;;;;21.38;29.54;101178.28;5093229;28;20044;-71
2022/04/28 14:40:27;;;;;;;10.13;4.75;;;;;;;21.41;29.79;101185.16;5093218;28;20400;-72
2022/04/28 14:42:53;;;;;;;7.50;4.90;;;;;;;21.18;29.73;101179.47;5092606;28;20024;-71
2022/04/28 14:45:19;;;;;;;7.05;4.97;;;;;;;21.17;29.53;101186.75;5092998;28;20052;-71
2022/04/28 14:47:45;;;;;;;8.85;5.00;;;;;;;20.89;30.51;101191.78;5092952;28;20028;-72
2022/04/28 14:52:55;;;;;;;7.93;5.18;;;;;;;20.97;30.28;101188.78;5092504;28;20028;-71
2022/04/28 14:55:20;;;;;;;7.22;4.82;;;;;;;20.95;31.00;101190.91;5092689;28;20050;-71
2022/04/28 14:57:48;;;;;;;6.15;4.47;;;;;;;21.02;30.41;101191.69;5092799;28;20040;-72
2022/04/28 15:00:15;;;;;;;;;;;;;;;21.02;31.57;101187.09;5075252;28;20044;-75
2022/04/28 15:02:41;;;;;;;9.20;5.18;;;;;;;20.74;30.53;101189.38;5093594;28;19973;-75
2022/04/28 15:05:08;;;;;;;7.55;4.90;;;;;;;20.92;30.52;101194.84;5092482;28;20405;-76
2022/04/28 15:07:34;;;;;;;8.77;4.88;;;;;;;21.08;31.03;101196.22;5092620;28;20034;-75
2022/04/28 15:10:00;;;;;;;11.90;5.53;;;;;;;20.88;30.88;101188.22;5092437;28;20032;-77
2022/04/28 15:12:29;;;;;;;12.88;7.07;;;;;;;21.01;31.19;101190.84;5073758;28;20040;-74
2022/04/28 15:14:59;;;;;;;12.40;6.88;;;;;;;20.74;31.13;101189.38;5092443;28;20039;-75
2022/04/28 15:17:26;;;;;;;7.95;5.20;;;;;;;20.86;31.15;101190.31;5092877;28;20095;-75
2022/04/28 15:19:51;;;;;;;10.07;7.43;;;;;;;20.97;30.89;101194.22;5074816;28;20118;-77
2022/04/28 15:22:17;;;;;;;9.48;5.60;;;;;;;20.93;31.01;101185.72;5092594;28;20238;-76
2022/04/28 15:24:44;;;;;;;8.98;5.93;;;;;;;20.98;30.98;101185.84;5092263;28;20139;-74
2022/04/28 15:27:11;;;;;;;9.10;6.22;;;;;;;20.99;30.36;101184.81;5092631;28;20085;-78
2022/04/28 15:29:37;;;;;;;6.40;4.78;;;;;;;20.81;31.37;101180.16;5092307;28;20502;-78
2022/04/28 15:32:04;;;;;;;8.13;5.80;;;;;;;20.55;30.95;101185.72;5073357;28;20032;-71
2022/04/28 15:34:30;;;;;;;9.13;5.07;;;;;;;20.66;32.12;101184.19;5091857;28;20531;-71
2022/04/28 15:36:55;;;;;;;8.88;5.10;;;;;;;20.74;31.02;101179.38;5091935;28;20314;-71
2022/04/28 15:39:21;;;;;;;9.27;5.20;;;;;;;20.80;31.25;101177.66;5091892;28;20040;-70
2022/04/28 15:41:47;;;;;;;6.82;4.45;;;;;;;20.53;31.41;101177.78;5073391;28;20036;-70
2022/04/28 15:44:14;;;;;;;8.27;5.13;;;;;;;20.63;30.91;101181.94;5092180;28;20578;-70
2022/04/28 15:46:40;;;;;;;7.43;4.93;;;;;;;20.54;31.27;101175.94;5092672;28;20036;-70
2022/04/28 15:49:07;;;;;;;7.30;4.72;;;;;;;20.57;31.55;101179.03;5091794;28;20526;-70
2022/04/28 15:51:34;;;;;;;6.72;5.32;;;;;;;20.31;30.90;101179.13;5091454;28;20043;-70
2022/04/28 15:54:02;;;;;;;6.93;4.60;;;;;;;20.45;31.59;101178.06;5091595;28;20032;-70
2022/04/28 15:56:28;;;;;;;6.95;5.32;;;;;;;20.34;31.71;101178.69;5091782;28;20043;-69
2022/04/28 15:58:53;;;;;;;11.45;5.65;;;;;;;20.32;31.30;101170.78;5093006;28;20058;-69
2022/04/28 16:01:19;;;;;;;7.00;4.90;;;;;;;20.40;31.57;101179.72;5091661;28;20452;-69
2022/04/28 16:03:48;;;;;;;5.10;4.15;;;;;;;20.44;31.32;101178.25;5091362;28;20040;-70
2022/04/28 16:06:18;;;;;;;5.63;4.35;;;;;;;20.48;31.53;101182.22;5091583;28;20066;-70
2022/04/28 16:08:44;;;;;;;10.38;5.85;;;;;;;20.17;31.31;101170.25;5091537;28;20074;-69
2022/04/28 16:11:11;;;;;;;7.75;5.35;;;;;;;20.32;30.84;101178.09;5091560;28;20027;-70
2022/04/28 16:13:38;;;;;;;9.68;5.75;;;;;;;20.29;31.45;101168.53;5091307;28;20032;-70
2022/04/28 16:16:05;;;;;;;6.85;5.03;;;;;;;20.15;31.65;101176.91;5091485;28;20036;-73
2022/04/28 16:18:31;;;;;;;9.07;6.03;;;;;;;20.22;31.76;101175.84;5091411;28;20035;-69
2022/04/28 16:20:57;;;;;;;9.23;5.38;;;;;;;20.19;31.43;101175.44;5073524;28;20036;-69
2022/04/28 16:23:23;;;;;;;14.23;8.30;;;;;;;20.26;31.56;101178.94;5091076;28;20449;-69
2022/04/28 16:25:49;;;;;;;10.95;5.35;;;;;;;20.18;31.51;101184.59;5073570;28;20451;-69
2022/04/28 16:28:15;;;;;;;9.25;6.10;;;;;;;20.18;31.18;101177.31;5073155;28;20146;-69